Avondale, Louisiana
Current Conditions -  °F | °C
As of 3:53 PM on Thursday 23 Oct 2014 (Local Time) from KMSY Reporting Station
Broken Clouds Broken Clouds  
Wind Chill: 74°   Ceiling: 25000
Heat Index: 74°   Visibility: 10mi
Dew Point: 46°   Wind: 8mph
Humidity: 37%   Direction: 360°N
Pressure: 30.04"   Gusts: NA
Location:  29.9137°N, 90.2078°W
Report Text: KMSY 232053Z 36007KT 10SM FEW120 BKN250 23/08 A3004 RMK AO2 SLP177 T02330078 55012
Loading
Personal Weather Stations






























Interactive Weather Map
Tropical Storm Tracking
New forecast layout! Learn more

10-Day Weather Forecast

Advertisements
Track Severe Weather on mobile